sensor_id;sensor_type;location;lat;lon;timestamp;P1;durP1;ratioP1;P2;durP2;ratioP2
74309;SDS011;62722;51.142;17.052;2023-09-30T00:01:12;14.20;;;8.63;;
74309;SDS011;62722;51.142;17.052;2023-09-30T00:03:42;13.00;;;8.93;;
74309;SDS011;62722;51.142;17.052;2023-09-30T00:06:09;15.70;;;8.52;;
74309;SDS011;62722;51.142;17.052;2023-09-30T00:08:38;13.50;;;9.45;;
74309;SDS011;62722;51.142;17.052;2023-09-30T00:11:09;12.18;;;9.43;;
74309;SDS011;62722;51.142;17.052;2023-09-30T00:13:37;14.68;;;9.65;;
74309;SDS011;62722;51.142;17.052;2023-09-30T00:16:04;16.75;;;9.88;;
74309;SDS011;62722;51.142;17.052;2023-09-30T00:18:33;13.30;;;9.23;;
74309;SDS011;62722;51.142;17.052;2023-09-30T00:21:00;11.95;;;8.40;;
74309;SDS011;62722;51.142;17.052;2023-09-30T00:23:28;13.88;;;9.32;;
74309;SDS011;62722;51.142;17.052;2023-09-30T00:25:56;15.25;;;9.73;;
74309;SDS011;62722;51.142;17.052;2023-09-30T00:28:24;15.13;;;10.00;;
74309;SDS011;62722;51.142;17.052;2023-09-30T00:30:52;13.05;;;9.18;;
74309;SDS011;62722;51.142;17.052;2023-09-30T00:33:20;13.13;;;9.00;;
74309;SDS011;62722;51.142;17.052;2023-09-30T00:35:52;15.70;;;9.75;;
74309;SDS011;62722;51.142;17.052;2023-09-30T00:38:19;14.00;;;9.43;;
74309;SDS011;62722;51.142;17.052;2023-09-30T00:40:49;17.85;;;10.13;;
74309;SDS011;62722;51.142;17.052;2023-09-30T00:43:20;13.13;;;9.35;;
74309;SDS011;62722;51.142;17.052;2023-09-30T00:45:48;15.07;;;10.07;;
74309;SDS011;62722;51.142;17.052;2023-09-30T00:48:19;15.25;;;9.90;;
74309;SDS011;62722;51.142;17.052;2023-09-30T00:50:47;16.40;;;10.77;;
74309;SDS011;62722;51.142;17.052;2023-09-30T00:53:16;14.35;;;9.00;;
74309;SDS011;62722;51.142;17.052;2023-09-30T00:55:44;14.68;;;9.38;;
74309;SDS011;62722;51.142;17.052;2023-09-30T00:58:12;14.30;;;8.85;;
74309;SDS011;62722;51.142;17.052;2023-09-30T01:00:49;13.18;;;8.45;;
74309;SDS011;62722;51.142;17.052;2023-09-30T01:03:20;13.25;;;8.70;;
74309;SDS011;62722;51.142;17.052;2023-09-30T01:05:47;14.15;;;9.75;;
74309;SDS011;62722;51.142;17.052;2023-09-30T01:08:17;16.20;;;10.43;;
74309;SDS011;62722;51.142;17.052;2023-09-30T01:10:47;16.27;;;10.40;;
74309;SDS011;62722;51.142;17.052;2023-09-30T01:13:14;15.07;;;9.60;;
74309;SDS011;62722;51.142;17.052;2023-09-30T01:15:41;14.00;;;9.63;;
74309;SDS011;62722;51.142;17.052;2023-09-30T01:18:08;15.85;;;9.25;;
74309;SDS011;62722;51.142;17.052;2023-09-30T01:20:35;12.95;;;8.60;;
74309;SDS011;62722;51.142;17.052;2023-09-30T01:23:04;12.07;;;8.00;;
74309;SDS011;62722;51.142;17.052;2023-09-30T01:25:31;13.25;;;8.07;;
74309;SDS011;62722;51.142;17.052;2023-09-30T01:27:59;14.57;;;8.65;;
74309;SDS011;62722;51.142;17.052;2023-09-30T01:30:32;11.60;;;7.70;;
74309;SDS011;62722;51.142;17.052;2023-09-30T01:32:59;11.77;;;7.40;;
74309;SDS011;62722;51.142;17.052;2023-09-30T01:35:26;9.93;;;7.10;;
74309;SDS011;62722;51.142;17.052;2023-09-30T01:37:54;9.55;;;6.55;;
74309;SDS011;62722;51.142;17.052;2023-09-30T01:40:23;9.75;;;6.53;;
74309;SDS011;62722;51.142;17.052;2023-09-30T01:42:50;8.70;;;6.40;;
74309;SDS011;62722;51.142;17.052;2023-09-30T01:45:19;10.55;;;6.40;;
74309;SDS011;62722;51.142;17.052;2023-09-30T01:47:46;9.73;;;6.25;;
74309;SDS011;62722;51.142;17.052;2023-09-30T01:50:13;11.13;;;6.07;;
74309;SDS011;62722;51.142;17.052;2023-09-30T01:52:41;9.48;;;6.40;;
74309;SDS011;62722;51.142;17.052;2023-09-30T01:55:08;7.97;;;5.63;;
74309;SDS011;62722;51.142;17.052;2023-09-30T01:57:37;9.68;;;6.05;;
74309;SDS011;62722;51.142;17.052;2023-09-30T02:00:05;9.38;;;5.70;;
74309;SDS011;62722;51.142;17.052;2023-09-30T02:02:35;8.75;;;5.63;;
74309;SDS011;62722;51.142;17.052;2023-09-30T02:05:03;10.40;;;5.95;;
74309;SDS011;62722;51.142;17.052;2023-09-30T02:07:31;9.10;;;6.00;;
74309;SDS011;62722;51.142;17.052;2023-09-30T02:09:58;9.63;;;5.63;;
74309;SDS011;62722;51.142;17.052;2023-09-30T02:12:26;10.63;;;5.20;;
74309;SDS011;62722;51.142;17.052;2023-09-30T02:15:04;10.20;;;5.32;;
74309;SDS011;62722;51.142;17.052;2023-09-30T02:17:33;7.55;;;5.07;;
74309;SDS011;62722;51.142;17.052;2023-09-30T02:19:59;7.80;;;5.35;;
74309;SDS011;62722;51.142;17.052;2023-09-30T02:22:31;8.80;;;4.97;;
74309;SDS011;62722;51.142;17.052;2023-09-30T02:24:59;11.27;;;5.47;;
74309;SDS011;62722;51.142;17.052;2023-09-30T02:27:26;6.13;;;4.53;;
74309;SDS011;62722;51.142;17.052;2023-09-30T02:29:54;9.02;;;5.30;;
74309;SDS011;62722;51.142;17.052;2023-09-30T02:32:22;8.95;;;5.00;;
74309;SDS011;62722;51.142;17.052;2023-09-30T02:34:49;10.00;;;4.70;;
74309;SDS011;62722;51.142;17.052;2023-09-30T02:37:17;7.97;;;5.15;;
74309;SDS011;62722;51.142;17.052;2023-09-30T02:39:45;8.43;;;5.07;;
74309;SDS011;62722;51.142;17.052;2023-09-30T02:42:12;9.38;;;4.85;;
74309;SDS011;62722;51.142;17.052;2023-09-30T02:44:39;9.27;;;5.35;;
74309;SDS011;62722;51.142;17.052;2023-09-30T02:47:07;8.65;;;4.90;;
74309;SDS011;62722;51.142;17.052;2023-09-30T02:49:35;8.38;;;5.22;;
74309;SDS011;62722;51.142;17.052;2023-09-30T02:52:03;8.30;;;5.32;;
74309;SDS011;62722;51.142;17.052;2023-09-30T02:54:31;9.60;;;5.40;;
74309;SDS011;62722;51.142;17.052;2023-09-30T02:56:58;9.27;;;4.38;;
74309;SDS011;62722;51.142;17.052;2023-09-30T02:59:25;7.13;;;4.68;;
74309;SDS011;62722;51.142;17.052;2023-09-30T03:01:53;6.53;;;4.50;;
74309;SDS011;62722;51.142;17.052;2023-09-30T03:04:20;6.63;;;4.45;;
74309;SDS011;62722;51.142;17.052;2023-09-30T03:06:51;6.28;;;4.13;;
74309;SDS011;62722;51.142;17.052;2023-09-30T03:09:18;6.68;;;4.45;;
74309;SDS011;62722;51.142;17.052;2023-09-30T03:11:46;6.05;;;4.40;;
74309;SDS011;62722;51.142;17.052;2023-09-30T03:14:13;8.05;;;4.65;;
74309;SDS011;62722;51.142;17.052;2023-09-30T03:16:41;7.75;;;5.00;;
74309;SDS011;62722;51.142;17.052;2023-09-30T03:19:10;7.55;;;4.70;;
74309;SDS011;62722;51.142;17.052;2023-09-30T03:21:38;8.15;;;5.25;;
74309;SDS011;62722;51.142;17.052;2023-09-30T03:24:08;8.45;;;4.97;;
74309;SDS011;62722;51.142;17.052;2023-09-30T03:26:35;8.27;;;4.75;;
74309;SDS011;62722;51.142;17.052;2023-09-30T03:29:07;7.18;;;4.53;;
74309;SDS011;62722;51.142;17.052;2023-09-30T03:31:34;9.00;;;4.47;;
74309;SDS011;62722;51.142;17.052;2023-09-30T03:34:02;8.70;;;5.07;;
74309;SDS011;62722;51.142;17.052;2023-09-30T03:36:29;8.95;;;5.20;;
74309;SDS011;62722;51.142;17.052;2023-09-30T03:38:56;8.55;;;5.18;;
74309;SDS011;62722;51.142;17.052;2023-09-30T03:41:26;9.68;;;4.72;;
74309;SDS011;62722;51.142;17.052;2023-09-30T03:43:54;8.98;;;5.28;;
74309;SDS011;62722;51.142;17.052;2023-09-30T03:46:21;10.02;;;4.65;;
74309;SDS011;62722;51.142;17.052;2023-09-30T03:48:48;8.73;;;5.00;;
74309;SDS011;62722;51.142;17.052;2023-09-30T03:51:15;9.80;;;4.90;;
74309;SDS011;62722;51.142;17.052;2023-09-30T03:53:42;9.88;;;4.72;;
74309;SDS011;62722;51.142;17.052;2023-09-30T03:56:10;7.32;;;4.47;;
74309;SDS011;62722;51.142;17.052;2023-09-30T03:58:40;9.43;;;5.22;;
74309;SDS011;62722;51.142;17.052;2023-09-30T04:01:08;7.43;;;4.70;;
74309;SDS011;62722;51.142;17.052;2023-09-30T04:06:06;10.85;;;4.90;;
74309;SDS011;62722;51.142;17.052;2023-09-30T04:08:33;7.43;;;4.78;;
74309;SDS011;62722;51.142;17.052;2023-09-30T04:11:01;7.63;;;5.10;;
74309;SDS011;62722;51.142;17.052;2023-09-30T04:13:30;8.27;;;5.13;;
74309;SDS011;62722;51.142;17.052;2023-09-30T04:15:58;7.72;;;4.63;;
74309;SDS011;62722;51.142;17.052;2023-09-30T04:18:25;7.57;;;5.03;;
74309;SDS011;62722;51.142;17.052;2023-09-30T04:20:53;6.90;;;5.00;;
74309;SDS011;62722;51.142;17.052;2023-09-30T04:23:22;10.48;;;5.20;;
74309;SDS011;62722;51.142;17.052;2023-09-30T04:25:49;9.02;;;5.05;;
74309;SDS011;62722;51.142;17.052;2023-09-30T04:28:16;10.20;;;5.30;;
74309;SDS011;62722;51.142;17.052;2023-09-30T04:30:47;8.30;;;5.10;;
74309;SDS011;62722;51.142;17.052;2023-09-30T04:33:16;9.35;;;4.70;;
74309;SDS011;62722;51.142;17.052;2023-09-30T04:35:45;7.72;;;4.68;;
74309;SDS011;62722;51.142;17.052;2023-09-30T04:38:12;9.68;;;4.97;;
74309;SDS011;62722;51.142;17.052;2023-09-30T04:40:40;7.68;;;5.05;;
74309;SDS011;62722;51.142;17.052;2023-09-30T04:43:09;8.00;;;5.20;;
74309;SDS011;62722;51.142;17.052;2023-09-30T04:45:37;9.48;;;4.80;;
74309;SDS011;62722;51.142;17.052;2023-09-30T04:48:04;8.23;;;4.95;;
74309;SDS011;62722;51.142;17.052;2023-09-30T04:50:33;7.68;;;4.47;;
74309;SDS011;62722;51.142;17.052;2023-09-30T04:52:59;9.77;;;4.93;;
74309;SDS011;62722;51.142;17.052;2023-09-30T04:55:28;8.77;;;4.78;;
74309;SDS011;62722;51.142;17.052;2023-09-30T04:57:55;8.05;;;4.55;;
74309;SDS011;62722;51.142;17.052;2023-09-30T05:00:22;9.65;;;5.00;;
74309;SDS011;62722;51.142;17.052;2023-09-30T05:02:50;8.63;;;4.95;;
74309;SDS011;62722;51.142;17.052;2023-09-30T05:05:18;8.98;;;4.80;;
74309;SDS011;62722;51.142;17.052;2023-09-30T05:07:46;8.95;;;4.75;;
74309;SDS011;62722;51.142;17.052;2023-09-30T05:10:14;10.10;;;5.40;;
74309;SDS011;62722;51.142;17.052;2023-09-30T05:12:41;8.75;;;5.68;;
74309;SDS011;62722;51.142;17.052;2023-09-30T05:15:11;9.68;;;5.28;;
74309;SDS011;62722;51.142;17.052;2023-09-30T05:17:39;9.50;;;5.78;;
74309;SDS011;62722;51.142;17.052;2023-09-30T05:20:06;10.80;;;5.00;;
74309;SDS011;62722;51.142;17.052;2023-09-30T05:22:33;9.05;;;5.07;;
74309;SDS011;62722;51.142;17.052;2023-09-30T05:25:02;7.68;;;4.82;;
74309;SDS011;62722;51.142;17.052;2023-09-30T05:27:29;10.00;;;5.15;;
74309;SDS011;62722;51.142;17.052;2023-09-30T05:29:58;7.75;;;4.50;;
74309;SDS011;62722;51.142;17.052;2023-09-30T05:32:25;8.43;;;4.68;;
74309;SDS011;62722;51.142;17.052;2023-09-30T05:34:53;8.40;;;4.93;;
74309;SDS011;62722;51.142;17.052;2023-09-30T05:37:20;15.02;;;5.55;;
74309;SDS011;62722;51.142;17.052;2023-09-30T05:39:49;5.90;;;4.28;;
74309;SDS011;62722;51.142;17.052;2023-09-30T05:42:17;9.35;;;5.38;;
74309;SDS011;62722;51.142;17.052;2023-09-30T05:44:45;7.95;;;4.55;;
74309;SDS011;62722;51.142;17.052;2023-09-30T05:47:13;9.85;;;4.93;;
74309;SDS011;62722;51.142;17.052;2023-09-30T05:49:41;7.15;;;4.53;;
74309;SDS011;62722;51.142;17.052;2023-09-30T05:52:08;8.93;;;4.82;;
74309;SDS011;62722;51.142;17.052;2023-09-30T05:54:35;8.15;;;4.88;;
74309;SDS011;62722;51.142;17.052;2023-09-30T05:57:03;8.35;;;4.53;;
74309;SDS011;62722;51.142;17.052;2023-09-30T05:59:32;8.85;;;4.68;;
74309;SDS011;62722;51.142;17.052;2023-09-30T06:01:59;9.00;;;4.70;;
74309;SDS011;62722;51.142;17.052;2023-09-30T06:04:28;10.20;;;4.88;;
74309;SDS011;62722;51.142;17.052;2023-09-30T06:06:55;9.07;;;4.65;;
74309;SDS011;62722;51.142;17.052;2023-09-30T06:09:24;7.28;;;4.57;;
74309;SDS011;62722;51.142;17.052;2023-09-30T06:11:52;8.82;;;4.55;;
74309;SDS011;62722;51.142;17.052;2023-09-30T06:14:19;9.63;;;4.35;;
74309;SDS011;62722;51.142;17.052;2023-09-30T06:16:49;7.97;;;3.13;;
74309;SDS011;62722;51.142;17.052;2023-09-30T06:19:17;6.07;;;2.53;;
74309;SDS011;62722;51.142;17.052;2023-09-30T06:21:44;6.13;;;2.80;;
74309;SDS011;62722;51.142;17.052;2023-09-30T06:24:11;4.78;;;2.13;;
74309;SDS011;62722;51.142;17.052;2023-09-30T06:26:38;7.50;;;1.98;;
74309;SDS011;62722;51.142;17.052;2023-09-30T06:29:06;5.38;;;1.92;;
74309;SDS011;62722;51.142;17.052;2023-09-30T06:31:33;5.28;;;1.40;;
74309;SDS011;62722;51.142;17.052;2023-09-30T06:34:02;4.22;;;1.40;;
74309;SDS011;62722;51.142;17.052;2023-09-30T06:36:30;3.08;;;1.15;;
74309;SDS011;62722;51.142;17.052;2023-09-30T06:38:58;4.28;;;1.15;;
74309;SDS011;62722;51.142;17.052;2023-09-30T06:41:26;3.42;;;1.30;;
74309;SDS011;62722;51.142;17.052;2023-09-30T06:43:53;6.97;;;2.30;;
74309;SDS011;62722;51.142;17.052;2023-09-30T06:46:21;3.42;;;1.60;;
74309;SDS011;62722;51.142;17.052;2023-09-30T06:48:49;3.25;;;1.30;;
74309;SDS011;62722;51.142;17.052;2023-09-30T06:51:19;3.58;;;1.35;;
74309;SDS011;62722;51.142;17.052;2023-09-30T06:53:46;4.30;;;1.30;;
74309;SDS011;62722;51.142;17.052;2023-09-30T06:56:13;6.63;;;1.52;;
74309;SDS011;62722;51.142;17.052;2023-09-30T06:58:41;2.92;;;1.35;;
74309;SDS011;62722;51.142;17.052;2023-09-30T07:01:08;3.40;;;1.60;;
74309;SDS011;62722;51.142;17.052;2023-09-30T07:03:35;4.13;;;1.77;;
74309;SDS011;62722;51.142;17.052;2023-09-30T07:06:02;6.85;;;2.67;;
74309;SDS011;62722;51.142;17.052;2023-09-30T07:08:31;5.30;;;2.28;;
74309;SDS011;62722;51.142;17.052;2023-09-30T07:10:58;5.00;;;2.72;;
74309;SDS011;62722;51.142;17.052;2023-09-30T07:13:26;5.68;;;2.90;;
74309;SDS011;62722;51.142;17.052;2023-09-30T07:15:53;6.93;;;3.72;;
74309;SDS011;62722;51.142;17.052;2023-09-30T07:18:20;7.32;;;3.67;;
74309;SDS011;62722;51.142;17.052;2023-09-30T07:20:50;5.88;;;3.20;;
74309;SDS011;62722;51.142;17.052;2023-09-30T07:23:19;7.18;;;3.85;;
74309;SDS011;62722;51.142;17.052;2023-09-30T07:25:47;5.55;;;3.30;;
74309;SDS011;62722;51.142;17.052;2023-09-30T07:28:16;5.68;;;3.30;;
74309;SDS011;62722;51.142;17.052;2023-09-30T07:30:43;7.88;;;3.80;;
74309;SDS011;62722;51.142;17.052;2023-09-30T07:33:11;6.18;;;3.45;;
74309;SDS011;62722;51.142;17.052;2023-09-30T07:35:38;6.63;;;3.47;;
74309;SDS011;62722;51.142;17.052;2023-09-30T07:38:06;6.80;;;3.33;;
74309;SDS011;62722;51.142;17.052;2023-09-30T07:40:36;4.88;;;2.80;;
74309;SDS011;62722;51.142;17.052;2023-09-30T07:43:05;4.97;;;2.78;;
74309;SDS011;62722;51.142;17.052;2023-09-30T07:45:32;5.32;;;2.40;;
74309;SDS011;62722;51.142;17.052;2023-09-30T07:47:59;5.38;;;2.45;;
74309;SDS011;62722;51.142;17.052;2023-09-30T07:50:30;6.15;;;2.53;;
74309;SDS011;62722;51.142;17.052;2023-09-30T07:52:57;5.30;;;2.05;;
74309;SDS011;62722;51.142;17.052;2023-09-30T07:55:26;3.97;;;1.65;;
74309;SDS011;62722;51.142;17.052;2023-09-30T07:57:53;5.85;;;1.88;;
74309;SDS011;62722;51.142;17.052;2023-09-30T08:00:24;4.32;;;1.98;;
74309;SDS011;62722;51.142;17.052;2023-09-30T08:02:51;5.85;;;1.75;;
74309;SDS011;62722;51.142;17.052;2023-09-30T08:05:18;6.85;;;1.85;;
74309;SDS011;62722;51.142;17.052;2023-09-30T08:07:46;6.05;;;2.58;;
74309;SDS011;62722;51.142;17.052;2023-09-30T08:10:13;5.15;;;1.98;;
74309;SDS011;62722;51.142;17.052;2023-09-30T08:12:42;5.15;;;1.67;;
74309;SDS011;62722;51.142;17.052;2023-09-30T08:15:11;6.40;;;1.90;;
74309;SDS011;62722;51.142;17.052;2023-09-30T08:17:40;4.35;;;2.00;;
74309;SDS011;62722;51.142;17.052;2023-09-30T08:20:07;6.03;;;2.17;;
74309;SDS011;62722;51.142;17.052;2023-09-30T08:22:35;5.95;;;2.13;;
74309;SDS011;62722;51.142;17.052;2023-09-30T08:25:02;5.95;;;2.22;;
74309;SDS011;62722;51.142;17.052;2023-09-30T08:27:32;7.45;;;2.65;;
74309;SDS011;62722;51.142;17.052;2023-09-30T08:29:59;6.80;;;2.15;;
74309;SDS011;62722;51.142;17.052;2023-09-30T08:32:32;8.43;;;2.60;;
74309;SDS011;62722;51.142;17.052;2023-09-30T08:35:00;6.78;;;2.55;;
74309;SDS011;62722;51.142;17.052;2023-09-30T08:37:29;7.05;;;2.35;;
74309;SDS011;62722;51.142;17.052;2023-09-30T08:39:57;4.65;;;2.13;;
74309;SDS011;62722;51.142;17.052;2023-09-30T08:42:24;5.22;;;2.40;;
74309;SDS011;62722;51.142;17.052;2023-09-30T08:44:55;6.43;;;2.13;;
74309;SDS011;62722;51.142;17.052;2023-09-30T08:47:23;4.70;;;2.33;;
74309;SDS011;62722;51.142;17.052;2023-09-30T08:49:52;5.13;;;2.72;;
74309;SDS011;62722;51.142;17.052;2023-09-30T08:52:25;5.80;;;2.55;;
74309;SDS011;62722;51.142;17.052;2023-09-30T08:54:53;8.05;;;3.10;;
74309;SDS011;62722;51.142;17.052;2023-09-30T08:57:20;6.10;;;2.40;;
74309;SDS011;62722;51.142;17.052;2023-09-30T08:59:47;5.32;;;2.42;;
74309;SDS011;62722;51.142;17.052;2023-09-30T09:02:15;6.70;;;2.55;;
74309;SDS011;62722;51.142;17.052;2023-09-30T09:04:42;4.60;;;2.10;;
74309;SDS011;62722;51.142;17.052;2023-09-30T09:07:11;5.45;;;2.08;;
74309;SDS011;62722;51.142;17.052;2023-09-30T09:09:39;6.32;;;2.33;;
74309;SDS011;62722;51.142;17.052;2023-09-30T09:12:17;8.15;;;2.47;;
74309;SDS011;62722;51.142;17.052;2023-09-30T09:14:45;5.57;;;2.00;;
74309;SDS011;62722;51.142;17.052;2023-09-30T09:17:13;7.90;;;1.90;;
74309;SDS011;62722;51.142;17.052;2023-09-30T09:19:41;6.15;;;1.70;;
74309;SDS011;62722;51.142;17.052;2023-09-30T09:22:09;5.57;;;1.60;;
74309;SDS011;62722;51.142;17.052;2023-09-30T09:24:37;5.95;;;1.85;;
74309;SDS011;62722;51.142;17.052;2023-09-30T09:27:06;7.13;;;1.63;;
74309;SDS011;62722;51.142;17.052;2023-09-30T09:29:34;8.05;;;2.03;;
74309;SDS011;62722;51.142;17.052;2023-09-30T09:32:12;4.38;;;1.77;;
74309;SDS011;62722;51.142;17.052;2023-09-30T09:34:40;5.40;;;1.70;;
74309;SDS011;62722;51.142;17.052;2023-09-30T09:37:15;8.10;;;2.17;;
74309;SDS011;62722;51.142;17.052;2023-09-30T09:39:48;4.15;;;1.52;;
74309;SDS011;62722;51.142;17.052;2023-09-30T09:42:25;4.85;;;1.63;;
74309;SDS011;62722;51.142;17.052;2023-09-30T09:44:53;7.80;;;1.80;;
74309;SDS011;62722;51.142;17.052;2023-09-30T09:47:21;3.67;;;1.65;;
74309;SDS011;62722;51.142;17.052;2023-09-30T09:49:50;5.15;;;1.60;;
74309;SDS011;62722;51.142;17.052;2023-09-30T09:52:17;4.40;;;1.60;;
74309;SDS011;62722;51.142;17.052;2023-09-30T09:54:45;4.97;;;1.52;;
74309;SDS011;62722;51.142;17.052;2023-09-30T09:57:13;5.43;;;1.65;;
74309;SDS011;62722;51.142;17.052;2023-09-30T09:59:44;4.50;;;1.67;;
74309;SDS011;62722;51.142;17.052;2023-09-30T10:02:13;5.20;;;1.65;;
74309;SDS011;62722;51.142;17.052;2023-09-30T10:04:41;6.28;;;1.90;;
74309;SDS011;62722;51.142;17.052;2023-09-30T10:07:12;3.95;;;1.77;;
74309;SDS011;62722;51.142;17.052;2023-09-30T10:09:44;6.88;;;1.75;;
74309;SDS011;62722;51.142;17.052;2023-09-30T10:12:14;3.45;;;1.60;;
74309;SDS011;62722;51.142;17.052;2023-09-30T10:14:41;6.18;;;1.20;;
74309;SDS011;62722;51.142;17.052;2023-09-30T10:17:10;6.45;;;1.50;;
74309;SDS011;62722;51.142;17.052;2023-09-30T10:22:20;3.67;;;1.50;;
74309;SDS011;62722;51.142;17.052;2023-09-30T10:24:52;7.65;;;1.55;;
74309;SDS011;62722;51.142;17.052;2023-09-30T10:27:33;3.83;;;1.48;;
74309;SDS011;62722;51.142;17.052;2023-09-30T10:30:06;4.10;;;1.48;;
74309;SDS011;62722;51.142;17.052;2023-09-30T10:35:20;4.07;;;1.50;;
74309;SDS011;62722;51.142;17.052;2023-09-30T10:37:48;5.78;;;1.25;;
74309;SDS011;62722;51.142;17.052;2023-09-30T10:40:25;6.43;;;1.48;;
74309;SDS011;62722;51.142;17.052;2023-09-30T10:42:53;5.00;;;1.50;;
74309;SDS011;62722;51.142;17.052;2023-09-30T10:50:55;3.38;;;1.25;;
74309;SDS011;62722;51.142;17.052;2023-09-30T10:53:24;6.28;;;1.75;;
74309;SDS011;62722;51.142;17.052;2023-09-30T10:55:53;9.00;;;2.00;;
74309;SDS011;62722;51.142;17.052;2023-09-30T10:58:21;7.53;;;1.40;;
74309;SDS011;62722;51.142;17.052;2023-09-30T11:00:52;6.13;;;1.50;;
74309;SDS011;62722;51.142;17.052;2023-09-30T11:03:19;5.03;;;1.60;;
74309;SDS011;62722;51.142;17.052;2023-09-30T11:05:47;4.97;;;1.67;;
74309;SDS011;62722;51.142;17.052;2023-09-30T11:08:16;5.25;;;1.73;;
74309;SDS011;62722;51.142;17.052;2023-09-30T11:10:47;5.78;;;2.05;;
74309;SDS011;62722;51.142;17.052;2023-09-30T11:13:14;8.63;;;1.98;;
74309;SDS011;62722;51.142;17.052;2023-09-30T11:15:42;8.02;;;1.63;;
74309;SDS011;62722;51.142;17.052;2023-09-30T11:18:13;4.47;;;1.38;;
74309;SDS011;62722;51.142;17.052;2023-09-30T11:20:44;6.13;;;1.75;;
74309;SDS011;62722;51.142;17.052;2023-09-30T11:23:13;5.60;;;1.77;;
74309;SDS011;62722;51.142;17.052;2023-09-30T11:25:42;7.32;;;1.85;;
74309;SDS011;62722;51.142;17.052;2023-09-30T11:28:13;6.90;;;1.70;;
74309;SDS011;62722;51.142;17.052;2023-09-30T11:30:54;4.88;;;1.67;;
74309;SDS011;62722;51.142;17.052;2023-09-30T11:33:23;6.82;;;1.90;;
74309;SDS011;62722;51.142;17.052;2023-09-30T11:35:56;5.20;;;1.52;;
74309;SDS011;62722;51.142;17.052;2023-09-30T11:38:25;5.70;;;1.80;;
74309;SDS011;62722;51.142;17.052;2023-09-30T11:41:01;4.20;;;1.80;;
74309;SDS011;62722;51.142;17.052;2023-09-30T11:43:32;7.10;;;1.77;;
74309;SDS011;62722;51.142;17.052;2023-09-30T11:46:06;8.75;;;1.80;;
74309;SDS011;62722;51.142;17.052;2023-09-30T11:48:35;6.32;;;1.95;;
74309;SDS011;62722;51.142;17.052;2023-09-30T11:51:03;6.40;;;1.73;;
74309;SDS011;62722;51.142;17.052;2023-09-30T11:53:30;6.35;;;1.70;;
74309;SDS011;62722;51.142;17.052;2023-09-30T11:55:57;8.32;;;1.95;;
74309;SDS011;62722;51.142;17.052;2023-09-30T11:58:27;8.02;;;1.83;;
74309;SDS011;62722;51.142;17.052;2023-09-30T12:00:58;6.85;;;1.95;;
74309;SDS011;62722;51.142;17.052;2023-09-30T12:03:27;6.75;;;2.00;;
74309;SDS011;62722;51.142;17.052;2023-09-30T12:05:54;10.45;;;2.40;;
74309;SDS011;62722;51.142;17.052;2023-09-30T12:08:22;6.65;;;1.70;;
74309;SDS011;62722;51.142;17.052;2023-09-30T12:10:52;8.25;;;1.90;;
74309;SDS011;62722;51.142;17.052;2023-09-30T12:13:19;6.13;;;1.77;;
74309;SDS011;62722;51.142;17.052;2023-09-30T12:15:49;5.70;;;1.88;;
74309;SDS011;62722;51.142;17.052;2023-09-30T12:18:19;5.47;;;2.33;;
74309;SDS011;62722;51.142;17.052;2023-09-30T12:20:49;8.60;;;2.08;;
74309;SDS011;62722;51.142;17.052;2023-09-30T12:23:18;6.75;;;1.85;;
74309;SDS011;62722;51.142;17.052;2023-09-30T12:25:45;7.03;;;2.00;;
74309;SDS011;62722;51.142;17.052;2023-09-30T12:28:13;8.25;;;2.25;;
74309;SDS011;62722;51.142;17.052;2023-09-30T12:30:41;8.07;;;1.90;;
74309;SDS011;62722;51.142;17.052;2023-09-30T12:33:12;6.25;;;2.63;;
74309;SDS011;62722;51.142;17.052;2023-09-30T12:38:07;8.93;;;2.50;;
74309;SDS011;62722;51.142;17.052;2023-09-30T12:40:34;6.50;;;1.90;;
74309;SDS011;62722;51.142;17.052;2023-09-30T12:43:02;4.40;;;1.60;;
74309;SDS011;62722;51.142;17.052;2023-09-30T12:45:28;7.10;;;1.92;;
74309;SDS011;62722;51.142;17.052;2023-09-30T12:47:56;5.78;;;1.80;;
74309;SDS011;62722;51.142;17.052;2023-09-30T12:50:25;9.32;;;2.20;;
74309;SDS011;62722;51.142;17.052;2023-09-30T12:52:52;8.82;;;1.95;;
74309;SDS011;62722;51.142;17.052;2023-09-30T12:55:19;7.43;;;1.80;;
74309;SDS011;62722;51.142;17.052;2023-09-30T12:57:47;5.95;;;1.88;;
74309;SDS011;62722;51.142;17.052;2023-09-30T13:00:14;6.85;;;1.98;;
74309;SDS011;62722;51.142;17.052;2023-09-30T13:02:42;6.88;;;1.83;;
74309;SDS011;62722;51.142;17.052;2023-09-30T13:05:10;6.18;;;1.73;;
74309;SDS011;62722;51.142;17.052;2023-09-30T13:07:40;6.25;;;1.70;;
74309;SDS011;62722;51.142;17.052;2023-09-30T13:10:08;6.72;;;2.15;;
74309;SDS011;62722;51.142;17.052;2023-09-30T13:12:39;5.45;;;1.70;;
74309;SDS011;62722;51.142;17.052;2023-09-30T13:15:07;5.65;;;1.52;;
74309;SDS011;62722;51.142;17.052;2023-09-30T13:17:34;7.15;;;2.35;;
74309;SDS011;62722;51.142;17.052;2023-09-30T13:20:01;7.78;;;1.60;;
74309;SDS011;62722;51.142;17.052;2023-09-30T13:22:31;6.47;;;2.00;;
74309;SDS011;62722;51.142;17.052;2023-09-30T13:25:01;9.02;;;1.80;;
74309;SDS011;62722;51.142;17.052;2023-09-30T13:27:29;4.93;;;1.52;;
74309;SDS011;62722;51.142;17.052;2023-09-30T13:29:57;6.80;;;1.55;;
74309;SDS011;62722;51.142;17.052;2023-09-30T13:32:24;4.85;;;1.65;;
74309;SDS011;62722;51.142;17.052;2023-09-30T13:34:52;5.07;;;1.70;;
74309;SDS011;62722;51.142;17.052;2023-09-30T13:37:20;6.07;;;1.65;;
74309;SDS011;62722;51.142;17.052;2023-09-30T13:39:48;4.53;;;1.58;;
74309;SDS011;62722;51.142;17.052;2023-09-30T13:42:18;5.03;;;1.63;;
74309;SDS011;62722;51.142;17.052;2023-09-30T13:44:45;6.40;;;2.05;;
74309;SDS011;62722;51.142;17.052;2023-09-30T13:47:13;4.55;;;1.55;;
74309;SDS011;62722;51.142;17.052;2023-09-30T13:49:40;5.50;;;1.90;;
74309;SDS011;62722;51.142;17.052;2023-09-30T13:52:08;6.07;;;2.03;;
74309;SDS011;62722;51.142;17.052;2023-09-30T13:54:36;6.15;;;1.95;;
74309;SDS011;62722;51.142;17.052;2023-09-30T13:57:03;6.10;;;1.60;;
74309;SDS011;62722;51.142;17.052;2023-09-30T13:59:34;7.75;;;2.25;;
74309;SDS011;62722;51.142;17.052;2023-09-30T14:02:04;5.53;;;1.58;;
74309;SDS011;62722;51.142;17.052;2023-09-30T14:04:33;5.45;;;1.98;;
74309;SDS011;62722;51.142;17.052;2023-09-30T14:07:01;7.80;;;2.20;;
74309;SDS011;62722;51.142;17.052;2023-09-30T14:09:29;4.78;;;1.75;;
74309;SDS011;62722;51.142;17.052;2023-09-30T14:11:56;4.85;;;1.40;;
74309;SDS011;62722;51.142;17.052;2023-09-30T14:14:24;5.30;;;1.83;;
74309;SDS011;62722;51.142;17.052;2023-09-30T14:16:53;7.00;;;2.03;;
74309;SDS011;62722;51.142;17.052;2023-09-30T14:19:20;8.68;;;2.10;;
74309;SDS011;62722;51.142;17.052;2023-09-30T14:21:48;6.35;;;1.63;;
74309;SDS011;62722;51.142;17.052;2023-09-30T14:24:15;10.05;;;2.08;;
74309;SDS011;62722;51.142;17.052;2023-09-30T14:26:43;11.18;;;2.50;;
74309;SDS011;62722;51.142;17.052;2023-09-30T14:29:10;4.47;;;1.70;;
74309;SDS011;62722;51.142;17.052;2023-09-30T14:31:38;4.70;;;1.40;;
74309;SDS011;62722;51.142;17.052;2023-09-30T14:34:06;6.13;;;1.98;;
74309;SDS011;62722;51.142;17.052;2023-09-30T14:36:34;4.68;;;1.20;;
74309;SDS011;62722;51.142;17.052;2023-09-30T14:39:01;7.60;;;1.85;;
74309;SDS011;62722;51.142;17.052;2023-09-30T14:41:30;6.13;;;1.73;;
74309;SDS011;62722;51.142;17.052;2023-09-30T14:43:58;6.65;;;1.55;;
74309;SDS011;62722;51.142;17.052;2023-09-30T14:46:26;6.95;;;1.83;;
74309;SDS011;62722;51.142;17.052;2023-09-30T14:48:53;4.03;;;1.45;;
74309;SDS011;62722;51.142;17.052;2023-09-30T14:51:23;7.75;;;1.85;;
74309;SDS011;62722;51.142;17.052;2023-09-30T14:53:51;6.70;;;1.70;;
74309;SDS011;62722;51.142;17.052;2023-09-30T14:56:18;6.05;;;1.30;;